Accueil
METAR-TAF:

METAR-TAF

Aéroports :

Springdale, Arkansas, États-Unis

latitude: 36-11N, longitude: 094-07W, altitude: 412 m

Observation

Le bulletin a été fait il y a 12 minutes, à 00:48 UTC
Vent 10 kt de nord-est avec des rafales jusqu'à 25 kt
Température -5°C
Humidité 86%
Pression 1032 hPa
Visibilité: 16.1 km
Ciel couvert à une hauteur de 1600 ft

METAR: KASG 120048Z 04010G25KT 10SM OVC016 M05/M07 A3048

Heure: 19:00 (01:00 UTC)


TAF: absent

Observations et prévisions météorologiques de plus de 4000 aéroports (messages METAR et TAF).

Les stations disponibles sont représentées par des disques jaunes et rouges sur la carte.

Passer la souris dessus pour voir le nom de la station.

Cliquer dessus pour voir les observations et prévisions météorologiques.

Pour changer de carte: cliquez sur les boutons verts avec une croix noire pour zoomer, sur le bouton vert avec un tiret pour effectuer un zoom arrière, ou sur les flèches vertes pour les cartes adjacentes.


METAR-TAF: